Prairie Grove, Arkansas
Current Conditions -  °F | °C
As of 8:53 PM on Monday 22 Dec 2014 (Local Time) from KFYV Reporting Station
Broken Clouds Broken Clouds  
Wind Chill: 44°   Ceiling: 2800
Heat Index: 47°   Visibility: 9mi
Dew Point: 45°   Wind: 6mph
Humidity: 93%   Direction: 250°WSW
Pressure: 29.64"   Gusts: NA
Location:  35.98°N, 94.32°W
Report Text: KFYV 230253Z 25005KT 9SM FEW014 BKN028 08/07 A2964 RMK AO2 SLP036 60000 T00830072 51013
Loading
Personal Weather Stations






























Interactive Weather Map New forecast layout! Learn more

10-Day Weather Forecast

Advertisements
Track Severe Weather on mobile